createdAt,value
2022-09-11T00:00:40.488Z,23.00
2022-09-11T00:03:11.788Z,23.00
2022-09-11T00:05:44.243Z,23.00
2022-09-11T00:08:16.845Z,23.00
2022-09-11T00:10:50.386Z,23.00
2022-09-11T00:13:23.537Z,23.00
2022-09-11T00:15:55.319Z,23.00
2022-09-11T00:18:26.015Z,23.00
2022-09-11T00:20:59.425Z,23.00
2022-09-11T00:23:30.236Z,23.00
2022-09-11T00:26:05.623Z,23.00
2022-09-11T00:28:36.520Z,23.10
2022-09-11T00:31:10.707Z,23.10
2022-09-11T00:33:41.854Z,23.20
2022-09-11T00:36:23.176Z,23.20
2022-09-11T00:38:54.161Z,23.20
2022-09-11T00:41:31.210Z,23.20
2022-09-11T00:44:10.780Z,23.20
2022-09-11T00:46:47.172Z,23.30
2022-09-11T00:49:46.945Z,23.40
2022-09-11T00:52:33.115Z,23.50
2022-09-11T00:55:16.307Z,23.70
2022-09-11T00:57:53.804Z,23.80
2022-09-11T01:00:24.797Z,23.90
2022-09-11T01:02:57.478Z,24.00
2022-09-11T01:05:30.685Z,24.00
2022-09-11T01:08:01.169Z,24.10
2022-09-11T01:11:01.282Z,24.10
2022-09-11T01:13:57.689Z,24.20
2022-09-11T01:16:45.502Z,24.20
2022-09-11T01:19:51.711Z,24.20
2022-09-11T01:22:52.188Z,24.20
2022-09-11T01:25:34.085Z,24.20
2022-09-11T01:28:11.197Z,24.20
2022-09-11T01:30:48.809Z,24.30
2022-09-11T01:33:48.539Z,24.40
2022-09-11T01:36:36.365Z,24.40
2022-09-11T01:39:07.577Z,24.50
2022-09-11T01:42:02.853Z,24.60
2022-09-11T01:44:51.491Z,24.70
2022-09-11T01:47:24.432Z,24.80
2022-09-11T01:50:05.147Z,24.90
2022-09-11T01:52:45.882Z,24.80
2022-09-11T01:55:23.077Z,24.90
2022-09-11T01:58:01.372Z,24.90
2022-09-11T02:00:33.210Z,24.90
2022-09-11T02:03:16.464Z,25.00
2022-09-11T02:05:53.641Z,24.90
2022-09-11T02:08:31.058Z,25.00
2022-09-11T02:11:09.171Z,25.00
2022-09-11T02:13:49.859Z,25.10
2022-09-11T02:16:44.533Z,25.20
2022-09-11T02:19:19.907Z,25.30
2022-09-11T02:21:52.901Z,25.30
2022-09-11T02:24:25.126Z,25.40
2022-09-11T02:27:00.687Z,25.30
2022-09-11T02:29:31.135Z,25.30
2022-09-11T02:32:02.869Z,25.40
2022-09-11T02:34:37.125Z,25.50
2022-09-11T02:37:33.553Z,25.70
2022-09-11T02:40:41.068Z,25.80
2022-09-11T02:43:49.202Z,25.90
2022-09-11T02:46:41.974Z,26.00
2022-09-11T02:49:43.688Z,26.20
2022-09-11T02:52:43.054Z,26.30
2022-09-11T02:55:22.813Z,26.30
2022-09-11T02:57:58.157Z,26.40
2022-09-11T03:00:28.720Z,26.50
2022-09-11T03:02:59.229Z,26.60
2022-09-11T03:05:31.106Z,26.80
2022-09-11T03:08:02.025Z,27.00
2022-09-11T03:10:32.314Z,27.10
2022-09-11T03:13:02.924Z,27.20
2022-09-11T03:15:33.923Z,27.30
2022-09-11T03:18:04.429Z,27.30
2022-09-11T03:20:36.247Z,27.30
2022-09-11T03:23:11.887Z,27.30
2022-09-11T03:25:43.773Z,27.30
2022-09-11T03:28:14.410Z,27.30
2022-09-11T03:30:44.813Z,27.30
2022-09-11T03:33:15.536Z,27.30
2022-09-11T03:35:46.836Z,27.40
2022-09-11T03:38:17.836Z,27.40
2022-09-11T03:40:48.183Z,27.40
2022-09-11T03:43:18.955Z,27.30
2022-09-11T03:45:52.306Z,27.40
2022-09-11T03:48:22.965Z,27.50
2022-09-11T03:50:53.371Z,27.60
2022-09-11T03:53:23.991Z,27.50
2022-09-11T03:55:54.344Z,27.40
2022-09-11T03:58:24.815Z,27.30
2022-09-11T04:00:55.538Z,27.40
2022-09-11T04:03:26.000Z,27.60
2022-09-11T04:06:05.049Z,27.70
2022-09-11T04:08:36.460Z,27.80
2022-09-11T04:11:08.792Z,27.90
2022-09-11T04:13:41.367Z,27.90
2022-09-11T04:16:15.490Z,28.00
2022-09-11T04:18:48.024Z,28.10
2022-09-11T04:21:20.705Z,28.10
2022-09-11T04:23:56.548Z,28.00
2022-09-11T04:26:29.017Z,28.00
2022-09-11T04:29:00.685Z,28.10
2022-09-11T04:31:31.475Z,28.20
2022-09-11T04:34:02.483Z,28.30
2022-09-11T04:36:32.893Z,28.10
2022-09-11T04:39:03.719Z,28.10
2022-09-11T04:41:34.726Z,28.10
2022-09-11T04:44:06.110Z,28.30
2022-09-11T04:46:37.046Z,28.40
2022-09-11T04:49:07.379Z,28.60
2022-09-11T04:51:41.215Z,28.70
2022-09-11T04:54:15.522Z,28.90
2022-09-11T04:56:46.361Z,28.90
2022-09-11T04:59:22.054Z,28.90
2022-09-11T05:01:54.187Z,29.00
2022-09-11T05:04:26.361Z,29.10
2022-09-11T05:07:00.547Z,29.10
2022-09-11T05:09:31.122Z,29.10
2022-09-11T05:12:01.454Z,29.00
2022-09-11T05:14:34.850Z,29.00
2022-09-11T05:17:05.448Z,29.10
2022-09-11T05:19:35.783Z,29.20
2022-09-11T05:22:06.570Z,29.40
2022-09-11T05:24:37.060Z,29.50
2022-09-11T05:27:08.950Z,29.60
2022-09-11T05:29:40.045Z,29.60
2022-09-11T05:32:10.622Z,29.60
2022-09-11T05:34:40.968Z,29.60
2022-09-11T05:37:11.290Z,29.60
2022-09-11T05:39:41.594Z,29.70
2022-09-11T05:42:11.916Z,29.60
2022-09-11T05:44:42.841Z,29.60
2022-09-11T05:47:13.228Z,29.50
2022-09-11T05:49:43.753Z,29.70
2022-09-11T05:52:14.040Z,29.70
2022-09-11T05:54:44.345Z,29.70
2022-09-11T05:57:14.838Z,29.90
2022-09-11T05:59:45.130Z,30.00
2022-09-11T06:02:16.194Z,30.20
2022-09-11T06:04:46.907Z,30.30
2022-09-11T06:07:17.160Z,30.30
2022-09-11T06:09:47.675Z,30.50
2022-09-11T06:12:18.038Z,30.50
2022-09-11T06:14:48.782Z,30.40
2022-09-11T06:17:19.395Z,30.50
2022-09-11T06:19:49.806Z,30.60
2022-09-11T06:22:20.054Z,30.50
2022-09-11T06:24:51.211Z,30.60
2022-09-11T06:27:22.162Z,30.60
2022-09-11T06:29:52.594Z,30.70
2022-09-11T06:32:22.850Z,30.80
2022-09-11T06:34:53.601Z,30.70
2022-09-11T06:37:23.880Z,30.50
2022-09-11T06:39:54.291Z,30.60
2022-09-11T06:42:25.542Z,30.60
2022-09-11T06:44:56.034Z,30.80
2022-09-11T06:47:26.397Z,30.80
2022-09-11T06:49:56.637Z,30.90
2022-09-11T06:52:26.913Z,30.80
2022-09-11T06:54:57.364Z,30.70
2022-09-11T06:57:27.652Z,30.50
2022-09-11T06:59:59.829Z,30.20
2022-09-11T07:02:30.083Z,29.90
2022-09-11T07:05:00.437Z,29.70
2022-09-11T07:07:30.760Z,29.50
2022-09-11T07:10:05.794Z,29.30
2022-09-11T07:12:36.027Z,29.10
2022-09-11T07:15:06.940Z,29.10
2022-09-11T07:17:38.474Z,28.90
2022-09-11T07:20:11.496Z,28.90
2022-09-11T07:22:42.585Z,28.80
2022-09-11T07:25:12.990Z,28.60
2022-09-11T07:27:43.490Z,28.60
2022-09-11T07:30:15.272Z,28.60
2022-09-11T07:32:45.527Z,28.50
2022-09-11T07:35:18.655Z,28.50
2022-09-11T07:37:51.016Z,28.40
2022-09-11T07:40:21.615Z,28.30
2022-09-11T07:42:51.933Z,28.40
2022-09-11T07:45:22.863Z,28.70
2022-09-11T07:47:53.331Z,28.70
2022-09-11T07:50:23.752Z,28.60
2022-09-11T07:52:54.260Z,28.50
2022-09-11T07:55:24.713Z,28.50
2022-09-11T07:57:56.168Z,28.40
2022-09-11T08:00:26.540Z,28.50
2022-09-11T08:02:58.649Z,28.40
2022-09-11T08:05:29.403Z,28.30
2022-09-11T08:08:00.254Z,28.20
2022-09-11T08:10:30.562Z,28.30
2022-09-11T08:13:01.456Z,28.30
2022-09-11T08:15:32.687Z,28.10
2022-09-11T08:18:03.340Z,27.80
2022-09-11T08:20:34.693Z,27.60
2022-09-11T08:23:04.961Z,27.40
2022-09-11T08:25:37.932Z,27.20
2022-09-11T08:28:09.005Z,27.00
2022-09-11T08:30:40.823Z,26.80
2022-09-11T08:33:11.542Z,26.70
2022-09-11T08:35:41.823Z,26.50
2022-09-11T08:38:12.339Z,26.30
2022-09-11T08:40:43.023Z,26.20
2022-09-11T08:43:33.016Z,26.20
2022-09-11T08:46:11.485Z,26.10
2022-09-11T08:49:02.361Z,26.00
2022-09-11T08:51:34.075Z,26.00
2022-09-11T08:54:05.832Z,25.90
2022-09-11T08:56:38.321Z,26.00
2022-09-11T08:59:38.534Z,26.10
2022-09-11T09:02:43.896Z,26.30
2022-09-11T09:05:34.685Z,26.50
2022-09-11T09:08:37.339Z,26.80
2022-09-11T09:11:24.498Z,27.00
2022-09-11T09:14:28.573Z,27.10
2022-09-11T09:17:10.084Z,27.20
2022-09-11T09:20:05.387Z,27.30
2022-09-11T09:22:50.646Z,27.30
2022-09-11T09:25:25.356Z,27.20
2022-09-11T09:28:19.238Z,27.20
2022-09-11T09:30:56.308Z,27.10
2022-09-11T09:33:33.999Z,27.10
2022-09-11T09:36:18.794Z,27.10
2022-09-11T09:38:50.436Z,27.00
2022-09-11T09:41:54.827Z,26.90
2022-09-11T09:44:51.141Z,26.90
2022-09-11T09:47:21.760Z,26.90
2022-09-11T09:49:54.757Z,26.90
2022-09-11T09:52:28.128Z,26.90
2022-09-11T09:55:03.338Z,26.90
2022-09-11T09:57:38.937Z,27.00
2022-09-11T10:00:22.607Z,27.00
2022-09-11T10:02:57.347Z,27.10
2022-09-11T10:05:44.288Z,27.10
2022-09-11T10:08:36.712Z,27.30
2022-09-11T10:11:11.549Z,27.30
2022-09-11T10:13:46.065Z,27.40
2022-09-11T10:16:29.414Z,27.40
2022-09-11T10:19:00.216Z,27.40
2022-09-11T10:21:35.557Z,27.40
2022-09-11T10:24:25.617Z,27.40
2022-09-11T10:26:57.850Z,27.30
2022-09-11T10:29:33.208Z,27.30
2022-09-11T10:32:05.224Z,27.20
2022-09-11T10:34:44.167Z,27.10
2022-09-11T10:37:29.342Z,27.00
2022-09-11T10:40:09.517Z,26.80
2022-09-11T10:42:43.292Z,26.70
2022-09-11T10:45:19.943Z,26.60
2022-09-11T10:47:51.317Z,26.60
2022-09-11T10:50:25.048Z,26.50
2022-09-11T10:53:23.117Z,26.50
2022-09-11T10:56:02.312Z,26.40
2022-09-11T10:58:39.401Z,26.30
2022-09-11T11:01:10.247Z,26.10
2022-09-11T11:03:41.236Z,26.10
2022-09-11T11:06:46.304Z,26.10
2022-09-11T11:09:35.142Z,26.10
2022-09-11T11:12:34.554Z,26.10
2022-09-11T11:15:30.458Z,26.00
2022-09-11T11:18:25.742Z,26.00
2022-09-11T11:21:24.169Z,25.90
2022-09-11T11:24:20.221Z,25.70
2022-09-11T11:27:24.523Z,25.50
2022-09-11T11:30:12.529Z,25.50
2022-09-11T11:33:12.303Z,25.50
2022-09-11T11:36:05.901Z,25.50
2022-09-11T11:39:02.484Z,25.50
2022-09-11T11:41:40.700Z,25.40
2022-09-11T11:44:17.890Z,25.50
2022-09-11T11:46:54.561Z,25.50
2022-09-11T11:50:02.728Z,25.50
2022-09-11T11:52:48.899Z,25.40
2022-09-11T11:55:23.095Z,25.40
2022-09-11T11:58:29.730Z,25.50
2022-09-11T12:01:03.919Z,25.50
2022-09-11T12:03:46.694Z,25.50
2022-09-11T12:06:17.699Z,25.50
2022-09-11T12:08:49.412Z,25.50
2022-09-11T12:11:28.877Z,25.50
2022-09-11T12:14:00.073Z,25.50
2022-09-11T12:16:37.077Z,25.50
2022-09-11T12:19:19.428Z,25.40
2022-09-11T12:22:13.737Z,25.50
2022-09-11T12:25:00.823Z,25.50
2022-09-11T12:27:55.056Z,25.50
2022-09-11T12:30:29.172Z,25.40
2022-09-11T12:33:03.027Z,25.30
2022-09-11T12:35:54.112Z,25.30
2022-09-11T12:38:42.949Z,25.30
2022-09-11T12:41:36.517Z,25.30
2022-09-11T12:44:27.531Z,25.20
2022-09-11T12:47:13.658Z,25.20
2022-09-11T12:49:45.636Z,25.30
2022-09-11T12:52:28.129Z,25.30
2022-09-11T12:55:07.152Z,25.30
2022-09-11T12:57:40.863Z,25.30
2022-09-11T13:00:22.671Z,25.30
2022-09-11T13:03:01.269Z,25.30
2022-09-11T13:05:37.323Z,25.30
2022-09-11T13:08:24.409Z,25.30
2022-09-11T13:10:54.676Z,25.30
2022-09-11T13:13:46.721Z,25.30
2022-09-11T13:16:31.364Z,25.30
2022-09-11T13:19:20.031Z,25.30
2022-09-11T13:21:54.103Z,25.20
2022-09-11T13:24:33.242Z,25.20
2022-09-11T13:27:12.217Z,25.20
2022-09-11T13:29:45.126Z,25.20
2022-09-11T13:32:19.117Z,25.30
2022-09-11T13:34:53.537Z,25.30
2022-09-11T13:37:44.349Z,25.30
2022-09-11T13:40:29.360Z,25.30
2022-09-11T13:43:01.367Z,25.40
2022-09-11T13:45:31.974Z,25.40
2022-09-11T13:48:02.742Z,25.30
2022-09-11T13:50:33.891Z,25.30
2022-09-11T13:53:04.335Z,25.20
2022-09-11T13:55:35.026Z,25.20
2022-09-11T13:58:23.941Z,25.20
2022-09-11T14:00:57.142Z,25.30
2022-09-11T14:03:30.800Z,25.20
2022-09-11T14:06:14.392Z,25.10
2022-09-11T14:08:55.989Z,25.10
2022-09-11T14:11:32.528Z,25.10
2022-09-11T14:14:13.291Z,25.10
2022-09-11T14:16:56.811Z,25.10
2022-09-11T14:19:32.907Z,25.10
2022-09-11T14:22:17.523Z,25.10
2022-09-11T14:25:06.161Z,25.10
2022-09-11T14:27:39.726Z,25.10
2022-09-11T14:30:34.684Z,25.10
2022-09-11T14:33:24.788Z,25.20
2022-09-11T14:36:07.946Z,25.10
2022-09-11T14:38:40.340Z,25.20
2022-09-11T14:41:11.000Z,25.10
2022-09-11T14:43:42.215Z,25.20
2022-09-11T14:46:12.895Z,25.10
2022-09-11T14:48:45.862Z,25.10
2022-09-11T14:51:16.247Z,25.10
2022-09-11T14:53:47.239Z,25.10
2022-09-11T14:56:17.452Z,25.00
2022-09-11T14:58:49.166Z,24.90
2022-09-11T15:01:19.446Z,24.90
2022-09-11T15:03:50.079Z,24.90
2022-09-11T15:06:22.497Z,24.80
2022-09-11T15:08:52.803Z,24.80
2022-09-11T15:11:23.173Z,24.80
2022-09-11T15:14:14.530Z,24.80
2022-09-11T15:16:45.307Z,24.80
2022-09-11T15:19:17.550Z,24.90
2022-09-11T15:21:47.837Z,24.90
2022-09-11T15:24:19.200Z,24.90
2022-09-11T15:26:49.568Z,24.90
2022-09-11T15:29:19.827Z,24.90
2022-09-11T15:31:50.987Z,25.00
2022-09-11T15:34:21.818Z,25.00
2022-09-11T15:36:53.176Z,25.00
2022-09-11T15:39:26.459Z,25.00
2022-09-11T15:41:58.472Z,25.00
2022-09-11T15:44:31.431Z,25.00
2022-09-11T15:47:01.846Z,25.00
2022-09-11T15:49:33.761Z,24.90
2022-09-11T15:52:04.917Z,24.90
2022-09-11T15:54:35.285Z,24.90
2022-09-11T15:57:05.551Z,24.90
2022-09-11T15:59:36.681Z,24.80
2022-09-11T16:02:07.046Z,24.80
2022-09-11T16:04:37.705Z,24.80
2022-09-11T16:07:08.008Z,24.80
2022-09-11T16:09:38.840Z,24.80
2022-09-11T16:12:09.460Z,24.80
2022-09-11T16:14:40.708Z,24.80
2022-09-11T16:17:18.770Z,24.90
2022-09-11T16:19:49.696Z,24.90
2022-09-11T16:22:19.934Z,24.90
2022-09-11T16:24:50.521Z,24.90
2022-09-11T16:27:21.403Z,24.90
2022-09-11T16:30:25.963Z,24.90
2022-09-11T16:32:43.240Z,24.90
2022-09-11T16:35:15.933Z,24.90
2022-09-11T16:37:46.262Z,24.90
2022-09-11T16:40:17.177Z,24.90
2022-09-11T16:42:47.463Z,24.90
2022-09-11T16:45:17.807Z,24.80
2022-09-11T16:47:48.392Z,24.80
2022-09-11T16:50:19.542Z,24.80
2022-09-11T16:52:49.786Z,24.80
2022-09-11T16:55:22.233Z,24.70
2022-09-11T16:57:56.205Z,24.70
2022-09-11T17:00:26.682Z,24.60
2022-09-11T17:02:56.955Z,24.60
2022-09-11T17:05:27.587Z,24.60
2022-09-11T17:07:57.849Z,24.70
2022-09-11T17:10:28.148Z,24.60
2022-09-11T17:12:58.789Z,24.60
2022-09-11T17:15:30.549Z,24.60
2022-09-11T17:18:00.796Z,24.60
2022-09-11T17:20:31.676Z,24.60
2022-09-11T17:23:02.026Z,24.60
2022-09-11T17:25:33.316Z,24.50
2022-09-11T17:28:03.620Z,24.50
2022-09-11T17:30:34.454Z,24.50
2022-09-11T17:33:05.125Z,24.60
2022-09-11T17:35:35.602Z,24.60
2022-09-11T17:38:06.096Z,24.50
2022-09-11T17:40:36.579Z,24.50
2022-09-11T17:43:07.103Z,24.50
2022-09-11T17:45:37.529Z,24.50
2022-09-11T17:48:07.794Z,24.50
2022-09-11T17:50:38.322Z,24.50
2022-09-11T17:53:08.519Z,24.40
2022-09-11T17:55:39.281Z,24.40
2022-09-11T17:58:09.541Z,24.30
2022-09-11T18:00:40.135Z,24.20
2022-09-11T18:03:10.442Z,24.20
2022-09-11T18:05:45.897Z,24.20
2022-09-11T18:08:16.414Z,24.20
2022-09-11T18:10:55.269Z,24.20
2022-09-11T18:13:25.519Z,24.20
2022-09-11T18:15:58.104Z,24.10
2022-09-11T18:18:29.523Z,24.20
2022-09-11T18:21:06.555Z,24.20
2022-09-11T18:23:41.249Z,24.20
2022-09-11T18:26:12.978Z,24.20
2022-09-11T18:28:43.207Z,24.10
2022-09-11T18:31:13.715Z,24.10
2022-09-11T18:33:44.191Z,24.10
2022-09-11T18:36:16.077Z,24.10
2022-09-11T18:38:46.432Z,24.10
2022-09-11T18:41:16.699Z,23.90
2022-09-11T18:43:50.499Z,23.90
2022-09-11T18:46:21.183Z,23.90
2022-09-11T18:48:52.455Z,24.00
2022-09-11T18:51:23.190Z,24.00
2022-09-11T18:53:54.211Z,24.00
2022-09-11T18:56:29.350Z,24.10
2022-09-11T18:59:01.499Z,24.00
2022-09-11T19:01:34.635Z,24.00
2022-09-11T19:04:10.236Z,24.00
2022-09-11T19:06:41.717Z,24.10
2022-09-11T19:09:14.755Z,24.10
2022-09-11T19:11:45.501Z,24.10
2022-09-11T19:14:17.015Z,24.10
2022-09-11T19:16:47.885Z,24.00
2022-09-11T19:19:18.358Z,24.00
2022-09-11T19:21:48.995Z,24.10
2022-09-11T19:24:19.259Z,24.10
2022-09-11T19:26:49.717Z,24.10
2022-09-11T19:29:22.236Z,24.10
2022-09-11T19:31:52.524Z,24.10
2022-09-11T19:34:24.152Z,24.10
2022-09-11T19:36:54.601Z,24.20
2022-09-11T19:39:24.947Z,24.10
2022-09-11T19:41:55.370Z,24.10
2022-09-11T19:44:27.240Z,24.10
2022-09-11T19:46:59.562Z,24.10
2022-09-11T19:49:31.161Z,24.10
2022-09-11T19:52:01.933Z,24.20
2022-09-11T19:54:32.861Z,24.10
2022-09-11T19:57:04.471Z,24.10
2022-09-11T19:59:35.123Z,24.10
2022-09-11T20:02:05.655Z,24.20
2022-09-11T20:04:36.041Z,24.10
2022-09-11T20:07:07.573Z,24.10
2022-09-11T20:09:37.916Z,24.00
2022-09-11T20:12:08.319Z,24.10
2022-09-11T20:14:42.419Z,24.10
2022-09-11T20:17:13.190Z,24.00
2022-09-11T20:19:46.744Z,24.00
2022-09-11T20:22:17.108Z,23.90
2022-09-11T20:24:47.385Z,23.90
2022-09-11T20:27:17.882Z,23.90
2022-09-11T20:29:48.159Z,23.90
2022-09-11T20:32:20.239Z,24.00
2022-09-11T20:34:50.560Z,23.90
2022-09-11T20:37:20.880Z,23.90
2022-09-11T20:39:51.187Z,23.90
2022-09-11T20:42:21.640Z,23.90
2022-09-11T20:44:51.997Z,23.90
2022-09-11T20:47:22.304Z,23.90
2022-09-11T20:49:52.722Z,23.90
2022-09-11T20:52:23.086Z,23.90
2022-09-11T20:54:53.855Z,23.90
2022-09-11T20:57:24.192Z,23.90
2022-09-11T20:59:54.492Z,23.90
2022-09-11T21:02:24.888Z,23.90
2022-09-11T21:04:55.175Z,23.90
2022-09-11T21:07:25.481Z,23.90
2022-09-11T21:09:55.774Z,23.90
2022-09-11T21:12:26.823Z,23.90
2022-09-11T21:14:57.550Z,23.90
2022-09-11T21:17:27.938Z,23.90
2022-09-11T21:19:58.206Z,24.00
2022-09-11T21:22:28.584Z,24.00
2022-09-11T21:24:58.961Z,24.00
2022-09-11T21:27:29.335Z,24.00
2022-09-11T21:29:59.594Z,24.00
2022-09-11T21:32:29.924Z,23.90
2022-09-11T21:35:00.216Z,23.90
2022-09-11T21:37:30.527Z,23.90
2022-09-11T21:40:00.884Z,23.90
2022-09-11T21:42:31.239Z,23.90
2022-09-11T21:45:01.614Z,23.90
2022-09-11T21:47:32.401Z,24.00
2022-09-11T21:50:02.701Z,24.00
2022-09-11T21:52:33.126Z,23.90
2022-09-11T21:55:03.406Z,23.90
2022-09-11T21:57:33.825Z,23.90
2022-09-11T22:00:04.233Z,23.90
2022-09-11T22:02:34.599Z,23.90
2022-09-11T22:05:06.256Z,23.80
2022-09-11T22:07:36.865Z,23.80
2022-09-11T22:10:09.456Z,23.80
2022-09-11T22:12:40.094Z,23.80
2022-09-11T22:15:11.874Z,23.80
2022-09-11T22:17:42.623Z,23.80
2022-09-11T22:20:12.997Z,23.80
2022-09-11T22:22:43.677Z,23.80
2022-09-11T22:25:14.013Z,23.70
2022-09-11T22:27:48.687Z,23.70
2022-09-11T22:30:18.982Z,23.70
2022-09-11T22:32:49.409Z,23.70
2022-09-11T22:35:20.520Z,23.70
2022-09-11T22:37:51.167Z,23.80
2022-09-11T22:40:21.841Z,23.80
2022-09-11T22:42:52.273Z,23.90
2022-09-11T22:45:23.127Z,23.90
2022-09-11T22:47:53.473Z,23.90
2022-09-11T22:50:23.799Z,23.90
2022-09-11T22:52:54.196Z,23.90
2022-09-11T22:55:24.512Z,23.90
2022-09-11T22:57:54.881Z,23.90
2022-09-11T23:00:25.223Z,23.80
2022-09-11T23:02:55.633Z,23.80
2022-09-11T23:05:38.639Z,23.80
2022-09-11T23:08:08.924Z,23.80
2022-09-11T23:10:47.091Z,23.70
2022-09-11T23:13:18.033Z,23.70
2022-09-11T23:15:48.779Z,23.60
2022-09-11T23:18:19.455Z,23.60
2022-09-11T23:20:54.008Z,23.60
2022-09-11T23:23:24.780Z,23.50
2022-09-11T23:25:55.383Z,23.50
2022-09-11T23:28:25.870Z,23.50
2022-09-11T23:30:56.541Z,23.50
2022-09-11T23:33:27.676Z,23.50
2022-09-11T23:35:58.155Z,23.50
2022-09-11T23:38:28.688Z,23.50
2022-09-11T23:40:58.993Z,23.50
2022-09-11T23:43:29.397Z,23.50
2022-09-11T23:45:59.764Z,23.40
2022-09-11T23:48:30.203Z,23.40
2022-09-11T23:51:00.499Z,23.40
2022-09-11T23:53:31.868Z,23.40
2022-09-11T23:56:02.411Z,23.30
2022-09-11T23:58:35.606Z,23.30
